sensor_id;sensor_type;location;lat;lon;timestamp;P1;durP1;ratioP1;P2;durP2;ratioP2
19551;SDS011;9921;47.186;9.778;2022-08-21T00:00:39;0.00;;;0.00;;
19551;SDS011;9921;47.186;9.778;2022-08-21T00:03:07;0.00;;;0.00;;
19551;SDS011;9921;47.186;9.778;2022-08-21T00:05:36;0.00;;;0.00;;
19551;SDS011;9921;47.186;9.778;2022-08-21T00:08:06;0.00;;;0.00;;
19551;SDS011;9921;47.186;9.778;2022-08-21T00:10:33;0.00;;;0.00;;
19551;SDS011;9921;47.186;9.778;2022-08-21T00:13:00;0.00;;;0.00;;
19551;SDS011;9921;47.186;9.778;2022-08-21T00:15:29;0.00;;;0.00;;
19551;SDS011;9921;47.186;9.778;2022-08-21T00:17:57;0.00;;;0.00;;
19551;SDS011;9921;47.186;9.778;2022-08-21T00:20:24;0.00;;;0.00;;
19551;SDS011;9921;47.186;9.778;2022-08-21T00:22:52;0.00;;;0.00;;
19551;SDS011;9921;47.186;9.778;2022-08-21T00:25:19;0.00;;;0.00;;
19551;SDS011;9921;47.186;9.778;2022-08-21T00:27:47;0.00;;;0.00;;
19551;SDS011;9921;47.186;9.778;2022-08-21T00:30:15;0.00;;;0.00;;
19551;SDS011;9921;47.186;9.778;2022-08-21T00:32:44;0.00;;;0.00;;
19551;SDS011;9921;47.186;9.778;2022-08-21T00:35:12;0.00;;;0.00;;
19551;SDS011;9921;47.186;9.778;2022-08-21T00:37:41;0.00;;;0.00;;
19551;SDS011;9921;47.186;9.778;2022-08-21T00:40:10;0.00;;;0.00;;
19551;SDS011;9921;47.186;9.778;2022-08-21T00:42:40;0.00;;;0.00;;
19551;SDS011;9921;47.186;9.778;2022-08-21T00:45:08;0.00;;;0.00;;
19551;SDS011;9921;47.186;9.778;2022-08-21T00:47:36;0.00;;;0.00;;
19551;SDS011;9921;47.186;9.778;2022-08-21T00:50:06;0.00;;;0.00;;
19551;SDS011;9921;47.186;9.778;2022-08-21T00:52:34;0.00;;;0.00;;
19551;SDS011;9921;47.186;9.778;2022-08-21T00:55:03;0.00;;;0.00;;
19551;SDS011;9921;47.186;9.778;2022-08-21T00:57:34;0.00;;;0.00;;
19551;SDS011;9921;47.186;9.778;2022-08-21T01:00:06;0.00;;;0.00;;
19551;SDS011;9921;47.186;9.778;2022-08-21T01:02:35;0.00;;;0.00;;
19551;SDS011;9921;47.186;9.778;2022-08-21T01:05:02;0.00;;;0.00;;
19551;SDS011;9921;47.186;9.778;2022-08-21T01:07:31;0.00;;;0.00;;
19551;SDS011;9921;47.186;9.778;2022-08-21T01:09:58;0.00;;;0.00;;
19551;SDS011;9921;47.186;9.778;2022-08-21T01:12:25;0.00;;;0.00;;
19551;SDS011;9921;47.186;9.778;2022-08-21T01:14:52;0.00;;;0.00;;
19551;SDS011;9921;47.186;9.778;2022-08-21T01:17:19;0.00;;;0.00;;
19551;SDS011;9921;47.186;9.778;2022-08-21T01:19:47;0.00;;;0.00;;
19551;SDS011;9921;47.186;9.778;2022-08-21T01:22:16;0.00;;;0.00;;
19551;SDS011;9921;47.186;9.778;2022-08-21T01:24:44;0.00;;;0.00;;
19551;SDS011;9921;47.186;9.778;2022-08-21T01:27:11;0.00;;;0.00;;
19551;SDS011;9921;47.186;9.778;2022-08-21T01:29:39;0.00;;;0.00;;
19551;SDS011;9921;47.186;9.778;2022-08-21T01:32:11;0.00;;;0.00;;
19551;SDS011;9921;47.186;9.778;2022-08-21T01:34:42;0.00;;;0.00;;
19551;SDS011;9921;47.186;9.778;2022-08-21T01:37:11;0.00;;;0.00;;
19551;SDS011;9921;47.186;9.778;2022-08-21T01:39:39;0.00;;;0.00;;
19551;SDS011;9921;47.186;9.778;2022-08-21T01:42:07;0.00;;;0.00;;
19551;SDS011;9921;47.186;9.778;2022-08-21T01:44:34;0.00;;;0.00;;
19551;SDS011;9921;47.186;9.778;2022-08-21T01:47:03;0.00;;;0.00;;
19551;SDS011;9921;47.186;9.778;2022-08-21T01:49:33;0.00;;;0.00;;
19551;SDS011;9921;47.186;9.778;2022-08-21T01:52:00;0.00;;;0.00;;
19551;SDS011;9921;47.186;9.778;2022-08-21T01:54:28;0.00;;;0.00;;
19551;SDS011;9921;47.186;9.778;2022-08-21T01:56:57;0.00;;;0.00;;
19551;SDS011;9921;47.186;9.778;2022-08-21T01:59:25;0.00;;;0.00;;
19551;SDS011;9921;47.186;9.778;2022-08-21T02:01:52;0.00;;;0.00;;
19551;SDS011;9921;47.186;9.778;2022-08-21T02:04:20;0.00;;;0.00;;
19551;SDS011;9921;47.186;9.778;2022-08-21T02:06:47;0.00;;;0.00;;
19551;SDS011;9921;47.186;9.778;2022-08-21T02:09:15;0.00;;;0.00;;
19551;SDS011;9921;47.186;9.778;2022-08-21T02:11:42;0.00;;;0.00;;
19551;SDS011;9921;47.186;9.778;2022-08-21T02:14:11;0.00;;;0.00;;
19551;SDS011;9921;47.186;9.778;2022-08-21T02:16:40;0.00;;;0.00;;
19551;SDS011;9921;47.186;9.778;2022-08-21T02:19:09;0.00;;;0.00;;
19551;SDS011;9921;47.186;9.778;2022-08-21T02:21:37;0.00;;;0.00;;
19551;SDS011;9921;47.186;9.778;2022-08-21T02:24:04;0.00;;;0.00;;
19551;SDS011;9921;47.186;9.778;2022-08-21T02:26:32;0.00;;;0.00;;
19551;SDS011;9921;47.186;9.778;2022-08-21T02:28:59;0.00;;;0.00;;
19551;SDS011;9921;47.186;9.778;2022-08-21T02:31:29;0.00;;;0.00;;
19551;SDS011;9921;47.186;9.778;2022-08-21T02:33:56;0.00;;;0.00;;
19551;SDS011;9921;47.186;9.778;2022-08-21T02:36:24;0.00;;;0.00;;
19551;SDS011;9921;47.186;9.778;2022-08-21T02:38:51;0.00;;;0.00;;
19551;SDS011;9921;47.186;9.778;2022-08-21T02:41:19;0.00;;;0.00;;
19551;SDS011;9921;47.186;9.778;2022-08-21T02:43:47;0.00;;;0.00;;
19551;SDS011;9921;47.186;9.778;2022-08-21T02:46:15;0.00;;;0.00;;
19551;SDS011;9921;47.186;9.778;2022-08-21T02:48:45;0.00;;;0.00;;
19551;SDS011;9921;47.186;9.778;2022-08-21T02:51:13;0.00;;;0.00;;
19551;SDS011;9921;47.186;9.778;2022-08-21T02:53:42;0.00;;;0.00;;
19551;SDS011;9921;47.186;9.778;2022-08-21T02:56:11;0.00;;;0.00;;
19551;SDS011;9921;47.186;9.778;2022-08-21T02:58:41;0.00;;;0.00;;
19551;SDS011;9921;47.186;9.778;2022-08-21T03:01:10;0.00;;;0.00;;
19551;SDS011;9921;47.186;9.778;2022-08-21T03:03:38;0.00;;;0.00;;
19551;SDS011;9921;47.186;9.778;2022-08-21T03:06:08;0.00;;;0.00;;
19551;SDS011;9921;47.186;9.778;2022-08-21T03:08:36;0.00;;;0.00;;
19551;SDS011;9921;47.186;9.778;2022-08-21T03:11:04;0.00;;;0.00;;
19551;SDS011;9921;47.186;9.778;2022-08-21T03:13:31;0.00;;;0.00;;
19551;SDS011;9921;47.186;9.778;2022-08-21T03:15:58;0.00;;;0.00;;
19551;SDS011;9921;47.186;9.778;2022-08-21T03:18:25;0.00;;;0.00;;
19551;SDS011;9921;47.186;9.778;2022-08-21T03:20:52;0.00;;;0.00;;
19551;SDS011;9921;47.186;9.778;2022-08-21T03:23:21;0.00;;;0.00;;
19551;SDS011;9921;47.186;9.778;2022-08-21T03:25:48;0.00;;;0.00;;
19551;SDS011;9921;47.186;9.778;2022-08-21T03:28:20;0.00;;;0.00;;
19551;SDS011;9921;47.186;9.778;2022-08-21T03:30:48;0.00;;;0.00;;
19551;SDS011;9921;47.186;9.778;2022-08-21T03:33:16;0.00;;;0.00;;
19551;SDS011;9921;47.186;9.778;2022-08-21T03:35:45;0.00;;;0.00;;
19551;SDS011;9921;47.186;9.778;2022-08-21T03:38:13;0.00;;;0.00;;
19551;SDS011;9921;47.186;9.778;2022-08-21T03:40:42;0.00;;;0.00;;
19551;SDS011;9921;47.186;9.778;2022-08-21T03:43:09;0.00;;;0.00;;
19551;SDS011;9921;47.186;9.778;2022-08-21T03:45:37;0.00;;;0.00;;
19551;SDS011;9921;47.186;9.778;2022-08-21T03:48:04;0.00;;;0.00;;
19551;SDS011;9921;47.186;9.778;2022-08-21T03:50:33;0.00;;;0.00;;
19551;SDS011;9921;47.186;9.778;2022-08-21T03:53:02;0.00;;;0.00;;
19551;SDS011;9921;47.186;9.778;2022-08-21T03:55:29;0.00;;;0.00;;
19551;SDS011;9921;47.186;9.778;2022-08-21T03:57:57;0.00;;;0.00;;
19551;SDS011;9921;47.186;9.778;2022-08-21T04:00:25;0.00;;;0.00;;
19551;SDS011;9921;47.186;9.778;2022-08-21T04:02:51;0.00;;;0.00;;
19551;SDS011;9921;47.186;9.778;2022-08-21T04:05:19;0.00;;;0.00;;
19551;SDS011;9921;47.186;9.778;2022-08-21T04:07:53;0.00;;;0.00;;
19551;SDS011;9921;47.186;9.778;2022-08-21T04:10:21;0.00;;;0.00;;
19551;SDS011;9921;47.186;9.778;2022-08-21T04:12:48;0.00;;;0.00;;
19551;SDS011;9921;47.186;9.778;2022-08-21T04:15:17;0.00;;;0.00;;
19551;SDS011;9921;47.186;9.778;2022-08-21T04:17:44;0.00;;;0.00;;
19551;SDS011;9921;47.186;9.778;2022-08-21T04:20:11;0.00;;;0.00;;
19551;SDS011;9921;47.186;9.778;2022-08-21T04:22:37;0.00;;;0.00;;
19551;SDS011;9921;47.186;9.778;2022-08-21T04:25:05;0.00;;;0.00;;
19551;SDS011;9921;47.186;9.778;2022-08-21T04:27:33;0.00;;;0.00;;
19551;SDS011;9921;47.186;9.778;2022-08-21T04:30:00;0.00;;;0.00;;
19551;SDS011;9921;47.186;9.778;2022-08-21T04:32:28;0.00;;;0.00;;
19551;SDS011;9921;47.186;9.778;2022-08-21T04:34:59;0.00;;;0.00;;
19551;SDS011;9921;47.186;9.778;2022-08-21T04:37:27;0.00;;;0.00;;
19551;SDS011;9921;47.186;9.778;2022-08-21T04:39:54;0.00;;;0.00;;
19551;SDS011;9921;47.186;9.778;2022-08-21T04:42:22;0.00;;;0.00;;
19551;SDS011;9921;47.186;9.778;2022-08-21T04:44:50;0.00;;;0.00;;
19551;SDS011;9921;47.186;9.778;2022-08-21T04:47:17;0.00;;;0.00;;
19551;SDS011;9921;47.186;9.778;2022-08-21T04:49:45;0.00;;;0.00;;
19551;SDS011;9921;47.186;9.778;2022-08-21T04:52:13;0.00;;;0.00;;
19551;SDS011;9921;47.186;9.778;2022-08-21T04:54:43;0.00;;;0.00;;
19551;SDS011;9921;47.186;9.778;2022-08-21T04:57:11;0.00;;;0.00;;
19551;SDS011;9921;47.186;9.778;2022-08-21T04:59:42;0.00;;;0.00;;
19551;SDS011;9921;47.186;9.778;2022-08-21T05:02:12;0.00;;;0.00;;
19551;SDS011;9921;47.186;9.778;2022-08-21T05:04:41;0.00;;;0.00;;
19551;SDS011;9921;47.186;9.778;2022-08-21T05:07:14;0.00;;;0.00;;
19551;SDS011;9921;47.186;9.778;2022-08-21T05:09:43;0.00;;;0.00;;
19551;SDS011;9921;47.186;9.778;2022-08-21T05:12:10;0.00;;;0.00;;
19551;SDS011;9921;47.186;9.778;2022-08-21T05:14:38;0.00;;;0.00;;
19551;SDS011;9921;47.186;9.778;2022-08-21T05:17:04;0.00;;;0.00;;
19551;SDS011;9921;47.186;9.778;2022-08-21T05:19:31;0.00;;;0.00;;
19551;SDS011;9921;47.186;9.778;2022-08-21T05:21:58;0.00;;;0.00;;
19551;SDS011;9921;47.186;9.778;2022-08-21T05:24:27;0.00;;;0.00;;
19551;SDS011;9921;47.186;9.778;2022-08-21T05:26:54;0.00;;;0.00;;
19551;SDS011;9921;47.186;9.778;2022-08-21T05:29:21;0.00;;;0.00;;
19551;SDS011;9921;47.186;9.778;2022-08-21T05:31:48;0.00;;;0.00;;
19551;SDS011;9921;47.186;9.778;2022-08-21T05:34:17;0.00;;;0.00;;
19551;SDS011;9921;47.186;9.778;2022-08-21T05:36:46;0.00;;;0.00;;
19551;SDS011;9921;47.186;9.778;2022-08-21T05:39:13;0.00;;;0.00;;
19551;SDS011;9921;47.186;9.778;2022-08-21T05:41:41;0.00;;;0.00;;
19551;SDS011;9921;47.186;9.778;2022-08-21T05:44:08;0.00;;;0.00;;
19551;SDS011;9921;47.186;9.778;2022-08-21T05:46:35;0.00;;;0.00;;
19551;SDS011;9921;47.186;9.778;2022-08-21T05:49:02;0.00;;;0.00;;
19551;SDS011;9921;47.186;9.778;2022-08-21T05:51:29;0.00;;;0.00;;
19551;SDS011;9921;47.186;9.778;2022-08-21T05:53:56;0.00;;;0.00;;
19551;SDS011;9921;47.186;9.778;2022-08-21T05:56:23;0.00;;;0.00;;
19551;SDS011;9921;47.186;9.778;2022-08-21T05:58:52;0.00;;;0.00;;
19551;SDS011;9921;47.186;9.778;2022-08-21T06:01:19;0.00;;;0.00;;
19551;SDS011;9921;47.186;9.778;2022-08-21T06:03:46;0.00;;;0.00;;
19551;SDS011;9921;47.186;9.778;2022-08-21T06:06:12;0.00;;;0.00;;
19551;SDS011;9921;47.186;9.778;2022-08-21T06:08:40;0.00;;;0.00;;
19551;SDS011;9921;47.186;9.778;2022-08-21T06:11:08;0.00;;;0.00;;
19551;SDS011;9921;47.186;9.778;2022-08-21T06:13:36;0.00;;;0.00;;
19551;SDS011;9921;47.186;9.778;2022-08-21T06:16:06;0.00;;;0.00;;
19551;SDS011;9921;47.186;9.778;2022-08-21T06:18:35;0.00;;;0.00;;
19551;SDS011;9921;47.186;9.778;2022-08-21T06:21:03;0.00;;;0.00;;
19551;SDS011;9921;47.186;9.778;2022-08-21T06:23:31;0.00;;;0.00;;
19551;SDS011;9921;47.186;9.778;2022-08-21T06:25:59;0.00;;;0.00;;
19551;SDS011;9921;47.186;9.778;2022-08-21T06:28:26;0.00;;;0.00;;
19551;SDS011;9921;47.186;9.778;2022-08-21T06:30:53;0.00;;;0.00;;
19551;SDS011;9921;47.186;9.778;2022-08-21T06:33:22;0.00;;;0.00;;
19551;SDS011;9921;47.186;9.778;2022-08-21T06:35:50;0.00;;;0.00;;
19551;SDS011;9921;47.186;9.778;2022-08-21T06:38:17;0.00;;;0.00;;
19551;SDS011;9921;47.186;9.778;2022-08-21T06:40:44;0.00;;;0.00;;
19551;SDS011;9921;47.186;9.778;2022-08-21T06:43:12;0.00;;;0.00;;
19551;SDS011;9921;47.186;9.778;2022-08-21T06:45:40;0.00;;;0.00;;
19551;SDS011;9921;47.186;9.778;2022-08-21T06:48:07;0.00;;;0.00;;
19551;SDS011;9921;47.186;9.778;2022-08-21T06:50:36;0.00;;;0.00;;
19551;SDS011;9921;47.186;9.778;2022-08-21T06:53:04;0.00;;;0.00;;
19551;SDS011;9921;47.186;9.778;2022-08-21T06:55:33;0.00;;;0.00;;
19551;SDS011;9921;47.186;9.778;2022-08-21T06:58:01;0.00;;;0.00;;
19551;SDS011;9921;47.186;9.778;2022-08-21T07:00:30;0.00;;;0.00;;
19551;SDS011;9921;47.186;9.778;2022-08-21T07:02:57;0.00;;;0.00;;
19551;SDS011;9921;47.186;9.778;2022-08-21T07:05:24;0.00;;;0.00;;
19551;SDS011;9921;47.186;9.778;2022-08-21T07:07:54;0.00;;;0.00;;
19551;SDS011;9921;47.186;9.778;2022-08-21T07:10:22;0.00;;;0.00;;
19551;SDS011;9921;47.186;9.778;2022-08-21T07:12:49;0.00;;;0.00;;
19551;SDS011;9921;47.186;9.778;2022-08-21T07:15:17;0.00;;;0.00;;
19551;SDS011;9921;47.186;9.778;2022-08-21T07:17:44;0.00;;;0.00;;
19551;SDS011;9921;47.186;9.778;2022-08-21T07:20:11;0.00;;;0.00;;
19551;SDS011;9921;47.186;9.778;2022-08-21T07:22:38;0.00;;;0.00;;
19551;SDS011;9921;47.186;9.778;2022-08-21T07:25:08;0.00;;;0.00;;
19551;SDS011;9921;47.186;9.778;2022-08-21T07:27:35;0.00;;;0.00;;
19551;SDS011;9921;47.186;9.778;2022-08-21T07:30:03;0.00;;;0.00;;
19551;SDS011;9921;47.186;9.778;2022-08-21T07:32:31;0.00;;;0.00;;
19551;SDS011;9921;47.186;9.778;2022-08-21T07:34:58;0.00;;;0.00;;
19551;SDS011;9921;47.186;9.778;2022-08-21T07:37:25;0.00;;;0.00;;
19551;SDS011;9921;47.186;9.778;2022-08-21T07:39:51;0.00;;;0.00;;
19551;SDS011;9921;47.186;9.778;2022-08-21T07:42:20;0.00;;;0.00;;
19551;SDS011;9921;47.186;9.778;2022-08-21T07:44:47;0.00;;;0.00;;
19551;SDS011;9921;47.186;9.778;2022-08-21T07:47:13;0.00;;;0.00;;
19551;SDS011;9921;47.186;9.778;2022-08-21T07:49:40;0.00;;;0.00;;
19551;SDS011;9921;47.186;9.778;2022-08-21T07:52:07;0.00;;;0.00;;
19551;SDS011;9921;47.186;9.778;2022-08-21T07:54:34;0.00;;;0.00;;
19551;SDS011;9921;47.186;9.778;2022-08-21T07:57:01;0.00;;;0.00;;
19551;SDS011;9921;47.186;9.778;2022-08-21T07:59:29;0.00;;;0.00;;
19551;SDS011;9921;47.186;9.778;2022-08-21T08:01:56;0.00;;;0.00;;
19551;SDS011;9921;47.186;9.778;2022-08-21T08:04:23;0.00;;;0.00;;
19551;SDS011;9921;47.186;9.778;2022-08-21T08:06:50;0.00;;;0.00;;
19551;SDS011;9921;47.186;9.778;2022-08-21T08:09:17;0.00;;;0.00;;
19551;SDS011;9921;47.186;9.778;2022-08-21T08:11:44;0.00;;;0.00;;
19551;SDS011;9921;47.186;9.778;2022-08-21T08:14:11;0.00;;;0.00;;
19551;SDS011;9921;47.186;9.778;2022-08-21T08:16:40;0.00;;;0.00;;
19551;SDS011;9921;47.186;9.778;2022-08-21T08:19:06;0.00;;;0.00;;
19551;SDS011;9921;47.186;9.778;2022-08-21T08:21:33;0.00;;;0.00;;
19551;SDS011;9921;47.186;9.778;2022-08-21T08:24:02;0.00;;;0.00;;
19551;SDS011;9921;47.186;9.778;2022-08-21T08:26:29;0.00;;;0.00;;
19551;SDS011;9921;47.186;9.778;2022-08-21T08:28:56;0.10;;;0.10;;
19551;SDS011;9921;47.186;9.778;2022-08-21T08:31:23;0.10;;;0.10;;
19551;SDS011;9921;47.186;9.778;2022-08-21T08:33:52;0.10;;;0.10;;
19551;SDS011;9921;47.186;9.778;2022-08-21T08:36:18;0.10;;;0.10;;
19551;SDS011;9921;47.186;9.778;2022-08-21T08:38:46;0.10;;;0.10;;
19551;SDS011;9921;47.186;9.778;2022-08-21T08:41:14;0.10;;;0.10;;
19551;SDS011;9921;47.186;9.778;2022-08-21T08:43:47;0.20;;;0.20;;
19551;SDS011;9921;47.186;9.778;2022-08-21T08:46:18;0.20;;;0.20;;
19551;SDS011;9921;47.186;9.778;2022-08-21T08:48:53;0.20;;;0.20;;
19551;SDS011;9921;47.186;9.778;2022-08-21T08:51:27;0.20;;;0.20;;
19551;SDS011;9921;47.186;9.778;2022-08-21T08:54:04;0.20;;;0.20;;
19551;SDS011;9921;47.186;9.778;2022-08-21T08:56:35;0.20;;;0.20;;
19551;SDS011;9921;47.186;9.778;2022-08-21T08:59:05;0.20;;;0.20;;
19551;SDS011;9921;47.186;9.778;2022-08-21T09:01:36;0.20;;;0.20;;
19551;SDS011;9921;47.186;9.778;2022-08-21T09:04:04;0.20;;;0.20;;
19551;SDS011;9921;47.186;9.778;2022-08-21T09:06:35;0.25;;;0.25;;
19551;SDS011;9921;47.186;9.778;2022-08-21T09:09:09;0.30;;;0.30;;
19551;SDS011;9921;47.186;9.778;2022-08-21T09:11:48;0.20;;;0.20;;
19551;SDS011;9921;47.186;9.778;2022-08-21T09:14:25;0.30;;;0.30;;
19551;SDS011;9921;47.186;9.778;2022-08-21T09:17:02;0.30;;;0.30;;
19551;SDS011;9921;47.186;9.778;2022-08-21T09:19:49;0.30;;;0.30;;
19551;SDS011;9921;47.186;9.778;2022-08-21T09:22:28;0.20;;;0.20;;
19551;SDS011;9921;47.186;9.778;2022-08-21T09:25:03;0.30;;;0.30;;
19551;SDS011;9921;47.186;9.778;2022-08-21T09:27:36;0.30;;;0.30;;
19551;SDS011;9921;47.186;9.778;2022-08-21T09:30:05;0.22;;;0.22;;
19551;SDS011;9921;47.186;9.778;2022-08-21T09:32:35;0.30;;;0.30;;
19551;SDS011;9921;47.186;9.778;2022-08-21T09:35:05;0.30;;;0.30;;
19551;SDS011;9921;47.186;9.778;2022-08-21T09:37:35;0.30;;;0.30;;
19551;SDS011;9921;47.186;9.778;2022-08-21T09:40:18;0.30;;;0.30;;
19551;SDS011;9921;47.186;9.778;2022-08-21T09:42:56;0.30;;;0.30;;
19551;SDS011;9921;47.186;9.778;2022-08-21T09:45:25;0.30;;;0.30;;
19551;SDS011;9921;47.186;9.778;2022-08-21T09:47:52;0.30;;;0.30;;
19551;SDS011;9921;47.186;9.778;2022-08-21T09:50:22;0.30;;;0.30;;
19551;SDS011;9921;47.186;9.778;2022-08-21T09:52:51;0.30;;;0.30;;
19551;SDS011;9921;47.186;9.778;2022-08-21T09:55:22;0.30;;;0.30;;
19551;SDS011;9921;47.186;9.778;2022-08-21T09:58:16;0.30;;;0.30;;
19551;SDS011;9921;47.186;9.778;2022-08-21T10:00:44;0.30;;;0.30;;
19551;SDS011;9921;47.186;9.778;2022-08-21T10:03:15;0.30;;;0.30;;
19551;SDS011;9921;47.186;9.778;2022-08-21T10:05:53;0.30;;;0.30;;
19551;SDS011;9921;47.186;9.778;2022-08-21T10:08:23;0.30;;;0.30;;
19551;SDS011;9921;47.186;9.778;2022-08-21T10:10:53;0.30;;;0.30;;
19551;SDS011;9921;47.186;9.778;2022-08-21T10:13:25;0.30;;;0.30;;
19551;SDS011;9921;47.186;9.778;2022-08-21T10:16:06;0.30;;;0.30;;
19551;SDS011;9921;47.186;9.778;2022-08-21T10:18:46;0.30;;;0.30;;
19551;SDS011;9921;47.186;9.778;2022-08-21T10:21:23;0.30;;;0.30;;
19551;SDS011;9921;47.186;9.778;2022-08-21T10:23:59;0.30;;;0.30;;
19551;SDS011;9921;47.186;9.778;2022-08-21T10:26:43;0.30;;;0.30;;
19551;SDS011;9921;47.186;9.778;2022-08-21T10:29:23;0.30;;;0.30;;
19551;SDS011;9921;47.186;9.778;2022-08-21T10:32:01;0.30;;;0.30;;
19551;SDS011;9921;47.186;9.778;2022-08-21T10:34:37;0.30;;;0.30;;
19551;SDS011;9921;47.186;9.778;2022-08-21T10:37:19;0.30;;;0.30;;
19551;SDS011;9921;47.186;9.778;2022-08-21T10:39:57;0.30;;;0.30;;
19551;SDS011;9921;47.186;9.778;2022-08-21T10:42:35;0.30;;;0.30;;
19551;SDS011;9921;47.186;9.778;2022-08-21T10:45:15;0.30;;;0.30;;
19551;SDS011;9921;47.186;9.778;2022-08-21T10:47:49;0.30;;;0.30;;
19551;SDS011;9921;47.186;9.778;2022-08-21T10:50:25;0.30;;;0.30;;
19551;SDS011;9921;47.186;9.778;2022-08-21T10:53:08;0.30;;;0.30;;
19551;SDS011;9921;47.186;9.778;2022-08-21T10:55:48;0.30;;;0.30;;
19551;SDS011;9921;47.186;9.778;2022-08-21T10:58:23;0.30;;;0.30;;
19551;SDS011;9921;47.186;9.778;2022-08-21T11:00:55;0.30;;;0.30;;
19551;SDS011;9921;47.186;9.778;2022-08-21T11:03:25;0.25;;;0.25;;
19551;SDS011;9921;47.186;9.778;2022-08-21T11:05:59;0.30;;;0.30;;
19551;SDS011;9921;47.186;9.778;2022-08-21T11:08:33;0.22;;;0.22;;
19551;SDS011;9921;47.186;9.778;2022-08-21T11:11:06;0.30;;;0.30;;
19551;SDS011;9921;47.186;9.778;2022-08-21T11:13:39;0.20;;;0.20;;
19551;SDS011;9921;47.186;9.778;2022-08-21T11:16:10;0.20;;;0.20;;
19551;SDS011;9921;47.186;9.778;2022-08-21T11:18:43;0.30;;;0.30;;
19551;SDS011;9921;47.186;9.778;2022-08-21T11:21:18;0.20;;;0.20;;
19551;SDS011;9921;47.186;9.778;2022-08-21T11:26:46;0.20;;;0.20;;
19551;SDS011;9921;47.186;9.778;2022-08-21T11:29:18;0.20;;;0.20;;
19551;SDS011;9921;47.186;9.778;2022-08-21T11:31:56;0.20;;;0.20;;
19551;SDS011;9921;47.186;9.778;2022-08-21T11:34:51;0.20;;;0.20;;
19551;SDS011;9921;47.186;9.778;2022-08-21T11:37:27;0.30;;;0.30;;
19551;SDS011;9921;47.186;9.778;2022-08-21T11:40:09;0.20;;;0.20;;
19551;SDS011;9921;47.186;9.778;2022-08-21T11:42:47;0.20;;;0.20;;
19551;SDS011;9921;47.186;9.778;2022-08-21T11:45:22;0.20;;;0.20;;
19551;SDS011;9921;47.186;9.778;2022-08-21T11:47:56;0.20;;;0.20;;
19551;SDS011;9921;47.186;9.778;2022-08-21T11:50:29;0.20;;;0.20;;
19551;SDS011;9921;47.186;9.778;2022-08-21T11:53:01;0.20;;;0.20;;
19551;SDS011;9921;47.186;9.778;2022-08-21T11:55:36;0.20;;;0.20;;
19551;SDS011;9921;47.186;9.778;2022-08-21T11:58:08;0.20;;;0.20;;
19551;SDS011;9921;47.186;9.778;2022-08-21T12:00:39;0.10;;;0.10;;
19551;SDS011;9921;47.186;9.778;2022-08-21T12:03:12;0.10;;;0.10;;
19551;SDS011;9921;47.186;9.778;2022-08-21T12:05:42;0.20;;;0.20;;
19551;SDS011;9921;47.186;9.778;2022-08-21T12:08:26;0.10;;;0.10;;
19551;SDS011;9921;47.186;9.778;2022-08-21T12:11:00;0.20;;;0.20;;
19551;SDS011;9921;47.186;9.778;2022-08-21T12:13:30;0.13;;;0.13;;
19551;SDS011;9921;47.186;9.778;2022-08-21T12:16:05;0.20;;;0.20;;
19551;SDS011;9921;47.186;9.778;2022-08-21T12:18:33;0.10;;;0.10;;
19551;SDS011;9921;47.186;9.778;2022-08-21T12:21:04;0.20;;;0.20;;
19551;SDS011;9921;47.186;9.778;2022-08-21T12:23:45;0.20;;;0.20;;
19551;SDS011;9921;47.186;9.778;2022-08-21T12:26:27;0.10;;;0.10;;
19551;SDS011;9921;47.186;9.778;2022-08-21T12:29:10;0.20;;;0.20;;
19551;SDS011;9921;47.186;9.778;2022-08-21T12:34:47;0.10;;;0.10;;
19551;SDS011;9921;47.186;9.778;2022-08-21T12:37:18;0.10;;;0.10;;
19551;SDS011;9921;47.186;9.778;2022-08-21T12:39:49;0.20;;;0.20;;
19551;SDS011;9921;47.186;9.778;2022-08-21T12:42:20;0.10;;;0.10;;
19551;SDS011;9921;47.186;9.778;2022-08-21T12:44:50;0.17;;;0.17;;
19551;SDS011;9921;47.186;9.778;2022-08-21T12:47:22;0.20;;;0.20;;
19551;SDS011;9921;47.186;9.778;2022-08-21T12:49:56;0.10;;;0.10;;
19551;SDS011;9921;47.186;9.778;2022-08-21T12:52:29;0.10;;;0.10;;
19551;SDS011;9921;47.186;9.778;2022-08-21T12:55:00;0.20;;;0.20;;
19551;SDS011;9921;47.186;9.778;2022-08-21T12:57:28;0.20;;;0.20;;
19551;SDS011;9921;47.186;9.778;2022-08-21T12:59:57;0.15;;;0.15;;
19551;SDS011;9921;47.186;9.778;2022-08-21T13:02:26;0.20;;;0.20;;
19551;SDS011;9921;47.186;9.778;2022-08-21T13:04:57;0.13;;;0.13;;
19551;SDS011;9921;47.186;9.778;2022-08-21T13:07:27;0.20;;;0.20;;
19551;SDS011;9921;47.186;9.778;2022-08-21T13:09:59;0.10;;;0.10;;
19551;SDS011;9921;47.186;9.778;2022-08-21T13:12:30;0.10;;;0.10;;
19551;SDS011;9921;47.186;9.778;2022-08-21T13:15:00;0.10;;;0.10;;
19551;SDS011;9921;47.186;9.778;2022-08-21T13:17:31;0.10;;;0.10;;
19551;SDS011;9921;47.186;9.778;2022-08-21T13:20:02;0.20;;;0.20;;
19551;SDS011;9921;47.186;9.778;2022-08-21T13:22:39;0.10;;;0.10;;
19551;SDS011;9921;47.186;9.778;2022-08-21T13:25:09;0.13;;;0.13;;
19551;SDS011;9921;47.186;9.778;2022-08-21T13:27:39;0.20;;;0.20;;
19551;SDS011;9921;47.186;9.778;2022-08-21T13:30:08;0.20;;;0.20;;
19551;SDS011;9921;47.186;9.778;2022-08-21T13:32:39;0.10;;;0.10;;
19551;SDS011;9921;47.186;9.778;2022-08-21T13:35:11;0.20;;;0.20;;
19551;SDS011;9921;47.186;9.778;2022-08-21T13:37:42;0.20;;;0.20;;
19551;SDS011;9921;47.186;9.778;2022-08-21T13:40:11;0.20;;;0.20;;
19551;SDS011;9921;47.186;9.778;2022-08-21T13:42:43;0.10;;;0.10;;
19551;SDS011;9921;47.186;9.778;2022-08-21T13:45:15;0.17;;;0.17;;
19551;SDS011;9921;47.186;9.778;2022-08-21T13:47:45;0.10;;;0.10;;
19551;SDS011;9921;47.186;9.778;2022-08-21T13:50:14;0.10;;;0.10;;
19551;SDS011;9921;47.186;9.778;2022-08-21T13:52:46;0.10;;;0.10;;
19551;SDS011;9921;47.186;9.778;2022-08-21T13:55:16;0.10;;;0.10;;
19551;SDS011;9921;47.186;9.778;2022-08-21T13:57:45;0.10;;;0.10;;
19551;SDS011;9921;47.186;9.778;2022-08-21T14:00:14;0.10;;;0.10;;
19551;SDS011;9921;47.186;9.778;2022-08-21T14:02:43;0.10;;;0.10;;
19551;SDS011;9921;47.186;9.778;2022-08-21T14:05:16;0.10;;;0.10;;
19551;SDS011;9921;47.186;9.778;2022-08-21T14:07:47;0.13;;;0.13;;
19551;SDS011;9921;47.186;9.778;2022-08-21T14:10:18;0.10;;;0.10;;
19551;SDS011;9921;47.186;9.778;2022-08-21T14:12:48;0.10;;;0.10;;
19551;SDS011;9921;47.186;9.778;2022-08-21T14:15:18;0.10;;;0.10;;
19551;SDS011;9921;47.186;9.778;2022-08-21T14:17:50;0.10;;;0.10;;
19551;SDS011;9921;47.186;9.778;2022-08-21T14:20:26;0.10;;;0.10;;
19551;SDS011;9921;47.186;9.778;2022-08-21T14:22:54;0.10;;;0.10;;
19551;SDS011;9921;47.186;9.778;2022-08-21T14:25:28;0.10;;;0.10;;
19551;SDS011;9921;47.186;9.778;2022-08-21T14:28:04;0.10;;;0.10;;
19551;SDS011;9921;47.186;9.778;2022-08-21T14:30:41;0.13;;;0.13;;
19551;SDS011;9921;47.186;9.778;2022-08-21T14:33:11;0.10;;;0.10;;
19551;SDS011;9921;47.186;9.778;2022-08-21T14:35:41;0.10;;;0.10;;
19551;SDS011;9921;47.186;9.778;2022-08-21T14:38:11;0.17;;;0.17;;
19551;SDS011;9921;47.186;9.778;2022-08-21T14:40:39;0.10;;;0.10;;
19551;SDS011;9921;47.186;9.778;2022-08-21T14:43:08;0.10;;;0.10;;
19551;SDS011;9921;47.186;9.778;2022-08-21T14:45:36;0.17;;;0.17;;
19551;SDS011;9921;47.186;9.778;2022-08-21T14:48:05;0.10;;;0.10;;
19551;SDS011;9921;47.186;9.778;2022-08-21T14:50:33;0.10;;;0.10;;
19551;SDS011;9921;47.186;9.778;2022-08-21T14:53:00;0.10;;;0.10;;
19551;SDS011;9921;47.186;9.778;2022-08-21T14:55:28;0.10;;;0.10;;
19551;SDS011;9921;47.186;9.778;2022-08-21T14:57:55;0.10;;;0.10;;
19551;SDS011;9921;47.186;9.778;2022-08-21T15:00:24;0.20;;;0.20;;
19551;SDS011;9921;47.186;9.778;2022-08-21T15:02:52;0.10;;;0.10;;
19551;SDS011;9921;47.186;9.778;2022-08-21T15:05:19;0.10;;;0.10;;
19551;SDS011;9921;47.186;9.778;2022-08-21T15:07:46;0.10;;;0.10;;
19551;SDS011;9921;47.186;9.778;2022-08-21T15:10:13;0.10;;;0.10;;
19551;SDS011;9921;47.186;9.778;2022-08-21T15:12:40;0.10;;;0.10;;
19551;SDS011;9921;47.186;9.778;2022-08-21T15:15:07;0.10;;;0.10;;
19551;SDS011;9921;47.186;9.778;2022-08-21T15:17:36;0.10;;;0.10;;
19551;SDS011;9921;47.186;9.778;2022-08-21T15:20:04;0.10;;;0.10;;
19551;SDS011;9921;47.186;9.778;2022-08-21T15:22:32;0.20;;;0.20;;